sensor_id;sensor_type;location;lat;lon;timestamp;temperature;humidity
55369;DHT22;41247;49.736;8.752;2023-07-02T02:20:09;14.30;99.90
55369;DHT22;41247;49.736;8.752;2023-07-02T02:29:31;14.40;99.90
55369;DHT22;41247;49.736;8.752;2023-07-02T03:03:54;14.30;99.90
55369;DHT22;41247;49.736;8.752;2023-07-02T03:12:06;14.30;99.90
55369;DHT22;41247;49.736;8.752;2023-07-02T03:34:55;13.90;99.90
55369;DHT22;41247;49.736;8.752;2023-07-02T03:49:14;13.80;99.90
55369;DHT22;41247;49.736;8.752;2023-07-02T04:10:09;13.80;99.90
55369;DHT22;41247;49.736;8.752;2023-07-02T04:13:50;13.80;99.90
55369;DHT22;41247;49.736;8.752;2023-07-02T06:29:01;16.00;99.90
55369;DHT22;41247;49.736;8.752;2023-07-02T06:33:12;15.90;99.90
55369;DHT22;41247;49.736;8.752;2023-07-02T06:36:53;15.70;99.90
55369;DHT22;41247;49.736;8.752;2023-07-02T06:40:34;15.60;99.90
55369;DHT22;41247;49.736;8.752;2023-07-02T06:44:19;15.70;99.90
55369;DHT22;41247;49.736;8.752;2023-07-02T06:48:09;15.90;99.90
55369;DHT22;41247;49.736;8.752;2023-07-02T06:51:58;16.40;99.90
55369;DHT22;41247;49.736;8.752;2023-07-02T06:55:39;16.60;99.90
55369;DHT22;41247;49.736;8.752;2023-07-02T06:59:23;16.70;99.90
55369;DHT22;41247;49.736;8.752;2023-07-02T07:03:04;17.10;99.90
55369;DHT22;41247;49.736;8.752;2023-07-02T07:06:45;17.50;99.90
55369;DHT22;41247;49.736;8.752;2023-07-02T07:10:25;17.50;99.90
55369;DHT22;41247;49.736;8.752;2023-07-02T07:14:06;17.40;99.90
55369;DHT22;41247;49.736;8.752;2023-07-02T07:17:47;17.50;99.90
55369;DHT22;41247;49.736;8.752;2023-07-02T07:21:27;17.60;99.90
55369;DHT22;41247;49.736;8.752;2023-07-02T07:25:08;17.70;99.90
55369;DHT22;41247;49.736;8.752;2023-07-02T07:28:49;17.90;99.90
55369;DHT22;41247;49.736;8.752;2023-07-02T07:32:29;18.20;99.90
55369;DHT22;41247;49.736;8.752;2023-07-02T07:36:10;18.40;99.90
55369;DHT22;41247;49.736;8.752;2023-07-02T07:39:51;18.20;99.90
55369;DHT22;41247;49.736;8.752;2023-07-02T07:43:31;18.10;99.90
55369;DHT22;41247;49.736;8.752;2023-07-02T07:47:12;18.20;99.90
55369;DHT22;41247;49.736;8.752;2023-07-02T07:50:53;18.30;99.90
55369;DHT22;41247;49.736;8.752;2023-07-02T07:54:34;18.50;99.90
55369;DHT22;41247;49.736;8.752;2023-07-02T07:58:14;18.70;99.90
55369;DHT22;41247;49.736;8.752;2023-07-02T08:01:55;18.60;99.90
55369;DHT22;41247;49.736;8.752;2023-07-02T08:05:35;18.70;99.90
55369;DHT22;41247;49.736;8.752;2023-07-02T08:09:16;18.90;99.90
55369;DHT22;41247;49.736;8.752;2023-07-02T08:12:57;19.10;99.90
55369;DHT22;41247;49.736;8.752;2023-07-02T08:16:37;18.90;99.90
55369;DHT22;41247;49.736;8.752;2023-07-02T08:20:18;18.70;99.90
55369;DHT22;41247;49.736;8.752;2023-07-02T08:23:58;18.90;99.90
55369;DHT22;41247;49.736;8.752;2023-07-02T08:27:39;19.50;99.90
55369;DHT22;41247;49.736;8.752;2023-07-02T08:31:19;19.90;99.90
55369;DHT22;41247;49.736;8.752;2023-07-02T08:35:00;20.20;99.90
55369;DHT22;41247;49.736;8.752;2023-07-02T08:38:41;20.50;99.90
55369;DHT22;41247;49.736;8.752;2023-07-02T08:42:22;20.90;99.90
55369;DHT22;41247;49.736;8.752;2023-07-02T08:46:02;21.20;99.90
55369;DHT22;41247;49.736;8.752;2023-07-02T08:49:43;21.20;99.90
55369;DHT22;41247;49.736;8.752;2023-07-02T08:53:23;21.40;99.90
55369;DHT22;41247;49.736;8.752;2023-07-02T08:57:04;21.60;99.90
55369;DHT22;41247;49.736;8.752;2023-07-02T09:01:09;21.00;99.90
55369;DHT22;41247;49.736;8.752;2023-07-02T09:05:02;20.90;99.90
55369;DHT22;41247;49.736;8.752;2023-07-02T09:08:43;21.40;99.90
55369;DHT22;41247;49.736;8.752;2023-07-02T09:12:28;21.50;99.90
55369;DHT22;41247;49.736;8.752;2023-07-02T09:16:29;20.90;99.90
55369;DHT22;41247;49.736;8.752;2023-07-02T09:20:10;20.80;99.90
55369;DHT22;41247;49.736;8.752;2023-07-02T09:23:51;21.60;99.90
55369;DHT22;41247;49.736;8.752;2023-07-02T09:27:40;22.10;99.90
55369;DHT22;41247;49.736;8.752;2023-07-02T09:31:21;22.00;99.90
55369;DHT22;41247;49.736;8.752;2023-07-02T09:35:02;22.00;99.90
55369;DHT22;41247;49.736;8.752;2023-07-02T09:38:42;21.80;99.90
55369;DHT22;41247;49.736;8.752;2023-07-02T09:42:25;21.90;99.90
55369;DHT22;41247;49.736;8.752;2023-07-02T09:46:06;21.70;99.90
55369;DHT22;41247;49.736;8.752;2023-07-02T09:50:04;21.30;99.90
55369;DHT22;41247;49.736;8.752;2023-07-02T09:53:45;20.70;99.90
55369;DHT22;41247;49.736;8.752;2023-07-02T09:57:26;20.40;99.90
55369;DHT22;41247;49.736;8.752;2023-07-02T10:01:06;20.30;99.90
55369;DHT22;41247;49.736;8.752;2023-07-02T10:04:47;20.70;99.90
55369;DHT22;41247;49.736;8.752;2023-07-02T10:08:28;21.30;99.90
55369;DHT22;41247;49.736;8.752;2023-07-02T10:12:21;21.10;99.90
55369;DHT22;41247;49.736;8.752;2023-07-02T10:16:06;20.60;99.90
55369;DHT22;41247;49.736;8.752;2023-07-02T10:19:54;20.70;99.90
55369;DHT22;41247;49.736;8.752;2023-07-02T10:23:36;20.60;99.90
55369;DHT22;41247;49.736;8.752;2023-07-02T10:27:16;20.60;99.90
55369;DHT22;41247;49.736;8.752;2023-07-02T10:30:57;20.70;99.90
55369;DHT22;41247;49.736;8.752;2023-07-02T10:34:38;21.00;99.90
55369;DHT22;41247;49.736;8.752;2023-07-02T10:38:23;21.70;99.90
55369;DHT22;41247;49.736;8.752;2023-07-02T10:42:05;21.90;99.90
55369;DHT22;41247;49.736;8.752;2023-07-02T10:45:47;21.70;99.90
55369;DHT22;41247;49.736;8.752;2023-07-02T10:49:31;22.10;99.90
55369;DHT22;41247;49.736;8.752;2023-07-02T10:53:16;22.10;99.90
55369;DHT22;41247;49.736;8.752;2023-07-02T10:56:58;22.10;99.90
55369;DHT22;41247;49.736;8.752;2023-07-02T11:00:46;22.00;99.90
55369;DHT22;41247;49.736;8.752;2023-07-02T11:04:29;22.60;99.90
55369;DHT22;41247;49.736;8.752;2023-07-02T11:08:10;23.10;99.90
55369;DHT22;41247;49.736;8.752;2023-07-02T11:15:36;22.40;99.90
55369;DHT22;41247;49.736;8.752;2023-07-02T11:19:18;22.00;99.90
55369;DHT22;41247;49.736;8.752;2023-07-02T11:22:59;22.60;99.90
55369;DHT22;41247;49.736;8.752;2023-07-02T11:26:40;22.80;99.90
55369;DHT22;41247;49.736;8.752;2023-07-02T11:30:21;22.60;99.90
55369;DHT22;41247;49.736;8.752;2023-07-02T11:34:21;22.80;99.90
55369;DHT22;41247;49.736;8.752;2023-07-02T11:38:02;22.40;99.90
55369;DHT22;41247;49.736;8.752;2023-07-02T11:41:44;22.60;99.90
55369;DHT22;41247;49.736;8.752;2023-07-02T11:45:25;22.40;99.90
55369;DHT22;41247;49.736;8.752;2023-07-02T11:49:06;22.30;99.90
55369;DHT22;41247;49.736;8.752;2023-07-02T11:52:46;22.10;99.90
55369;DHT22;41247;49.736;8.752;2023-07-02T11:56:27;21.90;99.90
55369;DHT22;41247;49.736;8.752;2023-07-02T12:00:08;21.80;99.90
55369;DHT22;41247;49.736;8.752;2023-07-02T12:03:50;21.70;99.90
55369;DHT22;41247;49.736;8.752;2023-07-02T12:07:30;21.90;99.90
55369;DHT22;41247;49.736;8.752;2023-07-02T12:11:11;22.50;99.90
55369;DHT22;41247;49.736;8.752;2023-07-02T12:14:52;22.60;99.90
55369;DHT22;41247;49.736;8.752;2023-07-02T12:18:32;22.10;99.90
55369;DHT22;41247;49.736;8.752;2023-07-02T12:22:13;21.80;99.90
55369;DHT22;41247;49.736;8.752;2023-07-02T12:25:53;21.90;99.90
55369;DHT22;41247;49.736;8.752;2023-07-02T12:29:35;22.20;99.90
55369;DHT22;41247;49.736;8.752;2023-07-02T12:33:19;22.60;99.90
55369;DHT22;41247;49.736;8.752;2023-07-02T12:37:15;22.70;99.90
55369;DHT22;41247;49.736;8.752;2023-07-02T12:40:56;22.50;99.90
55369;DHT22;41247;49.736;8.752;2023-07-02T12:44:55;22.20;99.90
55369;DHT22;41247;49.736;8.752;2023-07-02T12:48:41;22.00;99.90
55369;DHT22;41247;49.736;8.752;2023-07-02T12:52:29;21.90;99.90
55369;DHT22;41247;49.736;8.752;2023-07-02T12:56:23;21.80;99.90
55369;DHT22;41247;49.736;8.752;2023-07-02T13:00:13;22.40;99.90
55369;DHT22;41247;49.736;8.752;2023-07-02T13:03:54;23.10;99.90
55369;DHT22;41247;49.736;8.752;2023-07-02T13:08:13;23.60;99.90
55369;DHT22;41247;49.736;8.752;2023-07-02T13:12:07;23.50;99.90
55369;DHT22;41247;49.736;8.752;2023-07-02T13:16:05;23.30;99.90
55369;DHT22;41247;49.736;8.752;2023-07-02T13:19:49;24.10;99.90
55369;DHT22;41247;49.736;8.752;2023-07-02T13:23:29;25.00;99.90
55369;DHT22;41247;49.736;8.752;2023-07-02T13:27:15;25.20;99.90
55369;DHT22;41247;49.736;8.752;2023-07-02T13:31:02;25.10;99.90
55369;DHT22;41247;49.736;8.752;2023-07-02T13:34:43;24.40;99.90
55369;DHT22;41247;49.736;8.752;2023-07-02T13:38:24;23.80;99.90
55369;DHT22;41247;49.736;8.752;2023-07-02T13:42:04;23.80;99.90
55369;DHT22;41247;49.736;8.752;2023-07-02T13:45:45;24.20;99.90
55369;DHT22;41247;49.736;8.752;2023-07-02T13:49:26;24.00;99.90
55369;DHT22;41247;49.736;8.752;2023-07-02T13:53:08;23.70;99.90
55369;DHT22;41247;49.736;8.752;2023-07-02T13:56:48;23.90;99.90
55369;DHT22;41247;49.736;8.752;2023-07-02T14:00:29;24.70;99.90
55369;DHT22;41247;49.736;8.752;2023-07-02T14:04:11;24.70;99.90
55369;DHT22;41247;49.736;8.752;2023-07-02T14:07:51;24.50;99.90
55369;DHT22;41247;49.736;8.752;2023-07-02T14:11:33;24.00;99.90
55369;DHT22;41247;49.736;8.752;2023-07-02T14:15:15;24.20;99.90
55369;DHT22;41247;49.736;8.752;2023-07-02T14:18:56;24.20;99.90
55369;DHT22;41247;49.736;8.752;2023-07-02T14:22:36;23.90;99.90
55369;DHT22;41247;49.736;8.752;2023-07-02T14:26:17;24.20;99.90
55369;DHT22;41247;49.736;8.752;2023-07-02T14:29:58;24.30;99.90
55369;DHT22;41247;49.736;8.752;2023-07-02T14:33:38;24.10;99.90
55369;DHT22;41247;49.736;8.752;2023-07-02T14:37:19;24.40;99.90
55369;DHT22;41247;49.736;8.752;2023-07-02T14:41:00;24.10;99.90
55369;DHT22;41247;49.736;8.752;2023-07-02T14:44:41;24.50;99.90
55369;DHT22;41247;49.736;8.752;2023-07-02T14:48:22;24.90;99.90
55369;DHT22;41247;49.736;8.752;2023-07-02T14:52:03;24.90;99.90
55369;DHT22;41247;49.736;8.752;2023-07-02T14:55:44;25.20;99.90
55369;DHT22;41247;49.736;8.752;2023-07-02T14:59:25;25.30;99.90
55369;DHT22;41247;49.736;8.752;2023-07-02T15:03:06;24.70;99.90
55369;DHT22;41247;49.736;8.752;2023-07-02T15:06:47;25.00;99.90
55369;DHT22;41247;49.736;8.752;2023-07-02T15:10:27;25.90;99.90
55369;DHT22;41247;49.736;8.752;2023-07-02T15:14:08;25.90;99.90
55369;DHT22;41247;49.736;8.752;2023-07-02T15:17:48;25.50;99.90
55369;DHT22;41247;49.736;8.752;2023-07-02T15:21:29;25.90;99.90
55369;DHT22;41247;49.736;8.752;2023-07-02T15:25:10;26.20;99.90
55369;DHT22;41247;49.736;8.752;2023-07-02T15:28:50;25.20;99.90
55369;DHT22;41247;49.736;8.752;2023-07-02T15:32:31;24.30;99.90
55369;DHT22;41247;49.736;8.752;2023-07-02T15:36:11;24.30;99.90
55369;DHT22;41247;49.736;8.752;2023-07-02T15:39:52;24.40;99.90
55369;DHT22;41247;49.736;8.752;2023-07-02T15:43:33;24.20;99.90
55369;DHT22;41247;49.736;8.752;2023-07-02T15:47:14;24.00;99.90
55369;DHT22;41247;49.736;8.752;2023-07-02T15:50:54;24.40;99.90
55369;DHT22;41247;49.736;8.752;2023-07-02T15:54:35;24.70;99.90
55369;DHT22;41247;49.736;8.752;2023-07-02T15:58:16;25.00;99.90
55369;DHT22;41247;49.736;8.752;2023-07-02T16:01:56;24.90;99.90
55369;DHT22;41247;49.736;8.752;2023-07-02T16:05:37;24.50;99.90
55369;DHT22;41247;49.736;8.752;2023-07-02T16:09:18;24.00;99.90
55369;DHT22;41247;49.736;8.752;2023-07-02T16:12:58;24.10;99.90
55369;DHT22;41247;49.736;8.752;2023-07-02T16:16:40;24.00;99.90
55369;DHT22;41247;49.736;8.752;2023-07-02T16:20:22;23.60;99.90
55369;DHT22;41247;49.736;8.752;2023-07-02T16:24:09;23.20;99.90
55369;DHT22;41247;49.736;8.752;2023-07-02T16:27:57;23.00;99.90
55369;DHT22;41247;49.736;8.752;2023-07-02T16:31:43;22.80;99.90
55369;DHT22;41247;49.736;8.752;2023-07-02T16:35:27;22.70;99.90
55369;DHT22;41247;49.736;8.752;2023-07-02T16:39:08;23.00;99.90
55369;DHT22;41247;49.736;8.752;2023-07-02T16:42:49;23.40;99.90
55369;DHT22;41247;49.736;8.752;2023-07-02T16:46:29;23.30;99.90
55369;DHT22;41247;49.736;8.752;2023-07-02T16:50:10;22.90;99.90
55369;DHT22;41247;49.736;8.752;2023-07-02T16:53:50;22.50;99.90
55369;DHT22;41247;49.736;8.752;2023-07-02T16:57:31;22.30;99.90
55369;DHT22;41247;49.736;8.752;2023-07-02T17:01:12;22.20;99.90
55369;DHT22;41247;49.736;8.752;2023-07-02T17:04:52;22.20;99.90
55369;DHT22;41247;49.736;8.752;2023-07-02T17:08:38;22.00;99.90
55369;DHT22;41247;49.736;8.752;2023-07-02T17:12:20;21.80;99.90
55369;DHT22;41247;49.736;8.752;2023-07-02T17:16:03;21.70;99.90
55369;DHT22;41247;49.736;8.752;2023-07-02T17:19:46;21.60;99.90
55369;DHT22;41247;49.736;8.752;2023-07-02T17:23:34;21.70;99.90
55369;DHT22;41247;49.736;8.752;2023-07-02T17:27:25;21.80;99.90
55369;DHT22;41247;49.736;8.752;2023-07-02T17:31:06;21.80;99.90
55369;DHT22;41247;49.736;8.752;2023-07-02T17:34:47;21.80;99.90
55369;DHT22;41247;49.736;8.752;2023-07-02T17:38:33;22.00;99.90
55369;DHT22;41247;49.736;8.752;2023-07-02T17:42:17;22.00;99.90
55369;DHT22;41247;49.736;8.752;2023-07-02T17:46:08;21.80;99.90
55369;DHT22;41247;49.736;8.752;2023-07-02T17:49:51;21.50;99.90
55369;DHT22;41247;49.736;8.752;2023-07-02T17:53:38;21.20;99.90
55369;DHT22;41247;49.736;8.752;2023-07-02T17:57:25;21.20;99.90
55369;DHT22;41247;49.736;8.752;2023-07-02T18:01:05;21.20;99.90
55369;DHT22;41247;49.736;8.752;2023-07-02T18:09:17;21.20;99.90
55369;DHT22;41247;49.736;8.752;2023-07-02T18:18:27;20.90;99.90
55369;DHT22;41247;49.736;8.752;2023-07-02T18:27:02;20.60;99.90
55369;DHT22;41247;49.736;8.752;2023-07-02T18:30:49;20.60;99.90
55369;DHT22;41247;49.736;8.752;2023-07-02T18:43:40;20.40;99.90
55369;DHT22;41247;49.736;8.752;2023-07-02T18:47:26;20.40;99.90
55369;DHT22;41247;49.736;8.752;2023-07-02T18:51:06;20.30;99.90
55369;DHT22;41247;49.736;8.752;2023-07-02T18:54:47;20.20;99.90
55369;DHT22;41247;49.736;8.752;2023-07-02T18:58:49;20.20;99.90
55369;DHT22;41247;49.736;8.752;2023-07-02T19:02:38;20.10;99.90
55369;DHT22;41247;49.736;8.752;2023-07-02T19:06:45;20.00;99.90
55369;DHT22;41247;49.736;8.752;2023-07-02T19:10:38;19.90;99.90
55369;DHT22;41247;49.736;8.752;2023-07-02T19:14:40;19.80;99.90
55369;DHT22;41247;49.736;8.752;2023-07-02T19:19:02;19.70;99.90
55369;DHT22;41247;49.736;8.752;2023-07-02T19:22:58;19.60;99.90
55369;DHT22;41247;49.736;8.752;2023-07-02T19:27:12;19.50;99.90
55369;DHT22;41247;49.736;8.752;2023-07-02T19:39:45;19.20;99.90
55369;DHT22;41247;49.736;8.752;2023-07-02T19:43:31;19.00;99.90
55369;DHT22;41247;49.736;8.752;2023-07-02T19:47:47;19.00;99.90
55369;DHT22;41247;49.736;8.752;2023-07-02T19:51:33;18.90;99.90
55369;DHT22;41247;49.736;8.752;2023-07-02T19:56:08;18.70;99.90
55369;DHT22;41247;49.736;8.752;2023-07-02T20:14:12;18.20;99.90
55369;DHT22;41247;49.736;8.752;2023-07-02T20:17:57;18.10;99.90
55369;DHT22;41247;49.736;8.752;2023-07-02T20:29:23;17.80;99.90
55369;DHT22;41247;49.736;8.752;2023-07-02T20:33:06;17.80;99.90
55369;DHT22;41247;49.736;8.752;2023-07-02T20:36:50;17.80;99.90
55369;DHT22;41247;49.736;8.752;2023-07-02T20:41:03;17.80;99.90
55369;DHT22;41247;49.736;8.752;2023-07-02T20:44:53;17.90;99.90
55369;DHT22;41247;49.736;8.752;2023-07-02T20:48:34;17.90;99.90
55369;DHT22;41247;49.736;8.752;2023-07-02T21:01:23;17.80;99.90
55369;DHT22;41247;49.736;8.752;2023-07-02T21:05:14;17.80;99.90
55369;DHT22;41247;49.736;8.752;2023-07-02T21:09:09;17.80;99.90
55369;DHT22;41247;49.736;8.752;2023-07-02T21:12:52;17.80;99.90
55369;DHT22;41247;49.736;8.752;2023-07-02T21:16:36;17.80;99.90
55369;DHT22;41247;49.736;8.752;2023-07-02T21:24:25;17.70;99.90
55369;DHT22;41247;49.736;8.752;2023-07-02T21:28:11;17.60;99.90
55369;DHT22;41247;49.736;8.752;2023-07-02T21:32:13;17.60;99.90
55369;DHT22;41247;49.736;8.752;2023-07-02T21:36:19;17.50;99.90
55369;DHT22;41247;49.736;8.752;2023-07-02T21:40:09;17.40;99.90
55369;DHT22;41247;49.736;8.752;2023-07-02T21:43:52;17.20;99.90
55369;DHT22;41247;49.736;8.752;2023-07-02T21:47:39;17.20;99.90
55369;DHT22;41247;49.736;8.752;2023-07-02T21:51:20;17.10;99.90
55369;DHT22;41247;49.736;8.752;2023-07-02T21:55:31;17.10;99.90
55369;DHT22;41247;49.736;8.752;2023-07-02T21:59:30;17.10;99.90
55369;DHT22;41247;49.736;8.752;2023-07-02T22:03:21;17.00;99.90
55369;DHT22;41247;49.736;8.752;2023-07-02T22:11:11;16.90;99.90
55369;DHT22;41247;49.736;8.752;2023-07-02T22:14:57;16.90;99.90
55369;DHT22;41247;49.736;8.752;2023-07-02T22:18:38;16.80;99.90
55369;DHT22;41247;49.736;8.752;2023-07-02T22:22:19;16.80;99.90
55369;DHT22;41247;49.736;8.752;2023-07-02T22:30:33;16.80;99.90
55369;DHT22;41247;49.736;8.752;2023-07-02T22:34:16;16.90;99.90
55369;DHT22;41247;49.736;8.752;2023-07-02T22:38:08;16.90;99.90
55369;DHT22;41247;49.736;8.752;2023-07-02T22:41:56;16.90;99.90
55369;DHT22;41247;49.736;8.752;2023-07-02T22:45:39;16.90;99.90
55369;DHT22;41247;49.736;8.752;2023-07-02T22:49:19;16.90;99.90
55369;DHT22;41247;49.736;8.752;2023-07-02T22:53:00;16.90;99.90
55369;DHT22;41247;49.736;8.752;2023-07-02T22:56:41;16.90;99.90
55369;DHT22;41247;49.736;8.752;2023-07-02T23:00:21;16.90;99.90
55369;DHT22;41247;49.736;8.752;2023-07-02T23:04:02;16.90;99.90
55369;DHT22;41247;49.736;8.752;2023-07-02T23:07:44;16.90;99.90
55369;DHT22;41247;49.736;8.752;2023-07-02T23:11:25;16.90;99.90
55369;DHT22;41247;49.736;8.752;2023-07-02T23:15:07;16.90;99.90
55369;DHT22;41247;49.736;8.752;2023-07-02T23:18:53;16.90;99.90
55369;DHT22;41247;49.736;8.752;2023-07-02T23:22:57;16.80;99.90
55369;DHT22;41247;49.736;8.752;2023-07-02T23:26:41;16.80;99.90
55369;DHT22;41247;49.736;8.752;2023-07-02T23:30:38;16.70;99.90
55369;DHT22;41247;49.736;8.752;2023-07-02T23:34:31;16.70;99.90
55369;DHT22;41247;49.736;8.752;2023-07-02T23:38:11;16.60;99.90
55369;DHT22;41247;49.736;8.752;2023-07-02T23:46:29;16.50;99.90
55369;DHT22;41247;49.736;8.752;2023-07-02T23:50:24;16.50;99.90
55369;DHT22;41247;49.736;8.752;2023-07-02T23:54:31;16.40;99.90
55369;DHT22;41247;49.736;8.752;2023-07-02T23:58:11;16.30;99.90
